createdAt,value
2023-06-29T00:00:02.277Z,17.81
2023-06-29T00:02:33.013Z,17.75
2023-06-29T00:05:00.971Z,17.77
2023-06-29T00:07:28.579Z,17.73
2023-06-29T00:09:56.109Z,17.69
2023-06-29T00:12:23.846Z,17.70
2023-06-29T00:14:51.253Z,17.91
2023-06-29T00:17:18.641Z,17.89
2023-06-29T00:19:48.888Z,17.84
2023-06-29T00:22:17.594Z,17.71
2023-06-29T00:24:45.035Z,17.67
2023-06-29T00:27:13.309Z,17.75
2023-06-29T00:29:42.731Z,17.93
2023-06-29T00:32:11.466Z,17.77
2023-06-29T00:34:39.169Z,17.71
2023-06-29T00:37:07.010Z,17.75
2023-06-29T00:39:35.176Z,17.59
2023-06-29T00:42:03.483Z,17.73
2023-06-29T00:44:30.901Z,17.62
2023-06-29T00:46:58.477Z,17.45
2023-06-29T00:49:26.383Z,17.61
2023-06-29T00:51:54.534Z,17.55
2023-06-29T00:54:22.862Z,17.43
2023-06-29T00:56:50.696Z,17.55
2023-06-29T00:59:18.128Z,17.38
2023-06-29T01:01:46.896Z,17.36
2023-06-29T01:04:18.725Z,17.34
2023-06-29T01:06:58.480Z,17.14
2023-06-29T01:09:26.558Z,17.34
2023-06-29T01:11:54.154Z,17.37
2023-06-29T01:14:22.220Z,17.35
2023-06-29T01:16:51.251Z,17.33
2023-06-29T01:19:26.956Z,17.46
2023-06-29T01:22:02.665Z,17.29
2023-06-29T01:24:39.190Z,17.55
2023-06-29T01:27:09.533Z,17.35
2023-06-29T01:29:37.960Z,17.39
2023-06-29T01:32:08.374Z,17.21
2023-06-29T01:34:37.216Z,17.26
2023-06-29T01:37:19.078Z,17.18
2023-06-29T01:40:01.447Z,17.33
2023-06-29T01:42:33.688Z,17.31
2023-06-29T01:45:02.340Z,17.29
2023-06-29T01:47:30.030Z,17.16
2023-06-29T01:49:57.750Z,16.70
2023-06-29T01:52:25.964Z,16.93
2023-06-29T01:54:54.706Z,17.10
2023-06-29T01:57:23.327Z,17.11
2023-06-29T01:59:53.349Z,16.82
2023-06-29T02:02:20.791Z,17.06
2023-06-29T02:04:49.247Z,17.18
2023-06-29T02:07:16.770Z,17.09
2023-06-29T02:09:44.716Z,17.24
2023-06-29T02:12:13.173Z,17.00
2023-06-29T02:14:40.713Z,17.26
2023-06-29T02:17:08.225Z,17.11
2023-06-29T02:19:36.010Z,17.07
2023-06-29T02:22:03.474Z,17.11
2023-06-29T02:24:32.128Z,17.22
2023-06-29T02:27:00.189Z,17.24
2023-06-29T02:29:27.619Z,17.19
2023-06-29T02:31:55.091Z,17.10
2023-06-29T02:34:23.272Z,17.17
2023-06-29T02:36:50.839Z,17.09
2023-06-29T02:39:18.579Z,16.64
2023-06-29T02:41:46.232Z,16.97
2023-06-29T02:44:13.715Z,16.97
2023-06-29T02:46:41.713Z,17.18
2023-06-29T02:49:09.594Z,16.87
2023-06-29T02:51:37.168Z,16.58
2023-06-29T02:54:04.981Z,16.90
2023-06-29T02:56:32.746Z,17.06
2023-06-29T02:59:00.980Z,16.96
2023-06-29T03:01:28.733Z,16.99
2023-06-29T03:04:00.075Z,17.08
2023-06-29T03:06:27.661Z,16.91
2023-06-29T03:08:57.442Z,17.03
2023-06-29T03:11:25.115Z,16.75
2023-06-29T03:13:52.543Z,16.86
2023-06-29T03:16:19.988Z,17.17
2023-06-29T03:18:47.675Z,16.91
2023-06-29T03:21:18.672Z,16.95
2023-06-29T03:23:47.410Z,17.43
2023-06-29T03:26:15.092Z,17.30
2023-06-29T03:28:42.519Z,17.35
2023-06-29T03:31:09.934Z,17.36
2023-06-29T03:33:37.784Z,17.35
2023-06-29T03:36:06.482Z,17.27
2023-06-29T03:38:33.859Z,17.31
2023-06-29T03:41:01.599Z,17.34
2023-06-29T03:43:29.051Z,17.30
2023-06-29T03:45:59.242Z,17.59
2023-06-29T03:48:29.614Z,17.36
2023-06-29T03:50:58.343Z,17.47
2023-06-29T03:53:25.755Z,17.75
2023-06-29T03:55:53.428Z,18.10
2023-06-29T03:58:20.926Z,17.98
2023-06-29T04:00:48.369Z,18.17
2023-06-29T04:03:16.094Z,18.36
2023-06-29T04:05:44.066Z,18.50
2023-06-29T04:08:11.594Z,18.59
2023-06-29T04:10:39.327Z,18.57
2023-06-29T04:13:06.833Z,19.03
2023-06-29T04:15:34.251Z,18.89
2023-06-29T04:18:02.573Z,19.16
2023-06-29T04:20:30.677Z,19.33
2023-06-29T04:22:58.072Z,19.00
2023-06-29T04:25:25.807Z,19.12
2023-06-29T04:27:53.205Z,19.72
2023-06-29T04:30:20.888Z,19.99
2023-06-29T04:32:48.665Z,19.58
2023-06-29T04:35:16.319Z,19.39
2023-06-29T04:37:43.823Z,19.65
2023-06-29T04:40:13.923Z,20.41
2023-06-29T04:42:49.056Z,19.72
2023-06-29T04:45:19.826Z,20.58
2023-06-29T04:47:49.351Z,20.81
2023-06-29T04:50:17.142Z,20.78
2023-06-29T04:52:44.708Z,20.63
2023-06-29T04:55:12.206Z,21.52
2023-06-29T04:57:39.946Z,21.68
2023-06-29T05:00:12.363Z,20.52
2023-06-29T05:02:40.265Z,20.54
2023-06-29T05:05:08.635Z,21.02
2023-06-29T05:07:36.310Z,21.55
2023-06-29T05:10:04.315Z,21.93
2023-06-29T05:12:31.741Z,22.31
2023-06-29T05:14:59.112Z,22.16
2023-06-29T05:17:27.032Z,21.23
2023-06-29T05:19:54.484Z,21.56
2023-06-29T05:22:21.930Z,21.90
2023-06-29T05:24:49.598Z,21.75
2023-06-29T05:27:17.013Z,21.25
2023-06-29T05:29:44.457Z,21.19
2023-06-29T05:32:12.176Z,21.57
2023-06-29T05:34:39.702Z,21.60
2023-06-29T05:37:07.192Z,21.57
2023-06-29T05:39:35.120Z,21.80
2023-06-29T05:42:02.522Z,21.70
2023-06-29T05:44:30.042Z,21.61
2023-06-29T05:46:59.139Z,21.26
2023-06-29T05:49:26.540Z,20.98
2023-06-29T05:51:54.038Z,21.44
2023-06-29T05:54:21.776Z,21.29
2023-06-29T05:56:49.233Z,21.44
2023-06-29T05:59:16.634Z,21.53
2023-06-29T06:01:44.480Z,21.58
2023-06-29T06:04:12.243Z,21.69
2023-06-29T06:06:40.420Z,21.43
2023-06-29T06:09:07.861Z,21.39
2023-06-29T06:11:35.568Z,21.77
2023-06-29T06:14:03.011Z,21.76
2023-06-29T06:16:30.514Z,22.13
2023-06-29T06:18:58.195Z,22.16
2023-06-29T06:21:25.731Z,21.72
2023-06-29T06:23:54.568Z,21.91
2023-06-29T06:26:22.224Z,22.31
2023-06-29T06:28:50.055Z,22.38
2023-06-29T06:31:32.758Z,22.79
2023-06-29T06:34:02.371Z,22.20
2023-06-29T06:36:33.707Z,22.62
2023-06-29T06:39:01.641Z,22.62
2023-06-29T06:41:29.091Z,22.81
2023-06-29T06:43:56.994Z,22.69
2023-06-29T06:46:24.750Z,22.35
2023-06-29T06:48:52.443Z,22.27
2023-06-29T06:51:19.854Z,22.55
2023-06-29T06:53:48.419Z,22.47
2023-06-29T06:56:15.865Z,22.47
2023-06-29T06:58:43.303Z,22.62
2023-06-29T07:01:11.192Z,23.07
2023-06-29T07:03:38.673Z,23.04
2023-06-29T07:06:06.469Z,22.84
2023-06-29T07:08:36.199Z,22.54
2023-06-29T07:11:04.505Z,22.37
2023-06-29T07:13:32.584Z,22.83
2023-06-29T07:16:00.372Z,23.38
2023-06-29T07:18:27.815Z,23.65
2023-06-29T07:25:56.175Z,23.97
2023-06-29T07:28:23.657Z,23.52
2023-06-29T07:30:52.783Z,23.88
2023-06-29T07:33:20.303Z,23.64
2023-06-29T07:35:47.740Z,23.51
2023-06-29T07:38:16.329Z,23.64
2023-06-29T07:40:43.792Z,23.83
2023-06-29T07:43:11.885Z,23.84
2023-06-29T07:45:39.547Z,23.18
2023-06-29T07:48:07.327Z,23.52
2023-06-29T07:50:34.859Z,23.84
2023-06-29T07:53:02.975Z,24.19
2023-06-29T07:55:30.428Z,23.95
2023-06-29T08:00:28.518Z,23.89
2023-06-29T08:02:56.260Z,23.87
2023-06-29T08:07:55.186Z,23.74
2023-06-29T08:10:23.246Z,23.90
2023-06-29T08:12:50.819Z,24.52
2023-06-29T08:15:18.364Z,24.07
2023-06-29T08:17:47.199Z,24.81
2023-06-29T08:20:14.855Z,24.08
2023-06-29T08:22:46.333Z,24.44
2023-06-29T08:25:14.066Z,24.46
2023-06-29T08:27:42.716Z,24.57
2023-06-29T08:30:10.703Z,24.20
2023-06-29T08:32:38.394Z,24.41
2023-06-29T08:35:06.365Z,24.49
2023-06-29T08:37:33.740Z,24.30
2023-06-29T08:40:01.908Z,24.49
2023-06-29T08:42:29.498Z,24.58
2023-06-29T08:44:57.046Z,24.38
2023-06-29T08:47:25.765Z,24.52
2023-06-29T08:49:57.390Z,24.80
2023-06-29T08:52:27.487Z,24.26
2023-06-29T08:54:55.018Z,24.79
2023-06-29T08:57:22.562Z,24.79
2023-06-29T08:59:51.359Z,24.85
2023-06-29T09:02:19.089Z,25.35
2023-06-29T09:04:46.545Z,25.12
2023-06-29T09:07:17.074Z,24.74
2023-06-29T09:09:44.565Z,25.00
2023-06-29T09:12:12.023Z,25.03
2023-06-29T09:14:44.952Z,25.52
2023-06-29T09:17:17.615Z,25.59
2023-06-29T09:19:55.292Z,25.20
2023-06-29T09:22:23.400Z,25.54
2023-06-29T09:25:07.175Z,25.63
2023-06-29T09:27:37.905Z,25.90
2023-06-29T09:30:07.490Z,25.08
2023-06-29T09:32:41.049Z,25.61
2023-06-29T09:35:09.862Z,25.74
2023-06-29T09:37:37.574Z,26.05
2023-06-29T09:40:10.865Z,25.88
2023-06-29T09:42:39.591Z,26.48
2023-06-29T09:45:15.670Z,26.64
2023-06-29T09:50:23.793Z,25.61
2023-06-29T09:52:55.824Z,25.50
2023-06-29T09:55:30.998Z,26.06
2023-06-29T09:57:58.630Z,26.26
2023-06-29T10:00:28.862Z,26.14
2023-06-29T10:02:57.000Z,24.68
2023-06-29T10:05:24.581Z,24.93
2023-06-29T10:07:54.751Z,25.26
2023-06-29T10:10:24.530Z,25.55
2023-06-29T10:12:56.033Z,25.93
2023-06-29T10:15:26.481Z,26.17
2023-06-29T10:18:04.359Z,26.45
2023-06-29T10:20:34.297Z,26.27
2023-06-29T10:23:04.254Z,26.39
2023-06-29T10:25:34.849Z,26.66
2023-06-29T10:28:02.877Z,27.03
2023-06-29T10:30:30.355Z,26.19
2023-06-29T10:32:58.852Z,26.76
2023-06-29T10:35:27.222Z,26.95
2023-06-29T10:37:58.459Z,26.77
2023-06-29T10:40:27.317Z,26.12
2023-06-29T10:42:56.192Z,25.92
2023-06-29T10:45:23.608Z,26.25
2023-06-29T10:47:57.155Z,26.85
2023-06-29T10:50:26.346Z,26.78
2023-06-29T10:52:59.919Z,27.09
2023-06-29T10:55:30.194Z,27.02
2023-06-29T10:58:02.522Z,26.98
2023-06-29T11:00:29.951Z,26.89
2023-06-29T11:03:00.534Z,26.76
2023-06-29T11:05:29.576Z,26.35
2023-06-29T11:07:57.319Z,26.40
2023-06-29T11:10:25.015Z,26.63
2023-06-29T11:12:55.631Z,26.62
2023-06-29T11:15:23.990Z,26.15
2023-06-29T11:17:52.484Z,26.63
2023-06-29T11:20:21.969Z,26.71
2023-06-29T11:22:52.713Z,26.73
2023-06-29T11:25:20.500Z,26.93
2023-06-29T11:27:48.084Z,26.99
2023-06-29T11:30:15.510Z,26.22
2023-06-29T11:32:43.516Z,25.77
2023-06-29T11:35:11.650Z,26.08
2023-06-29T11:37:40.172Z,26.13
2023-06-29T11:40:24.032Z,26.05
2023-06-29T11:42:51.878Z,26.50
2023-06-29T11:45:19.711Z,26.65
2023-06-29T11:47:52.173Z,26.62
2023-06-29T11:50:19.993Z,26.64
2023-06-29T11:52:47.764Z,26.73
2023-06-29T11:55:16.582Z,26.73
2023-06-29T11:57:51.288Z,26.54
2023-06-29T12:00:18.596Z,26.92
2023-06-29T12:02:46.287Z,26.91
2023-06-29T12:05:14.079Z,27.05
2023-06-29T12:07:45.880Z,27.11
2023-06-29T12:10:26.202Z,26.62
2023-06-29T12:12:57.369Z,27.06
2023-06-29T12:15:26.709Z,27.16
2023-06-29T12:18:10.086Z,27.36
2023-06-29T12:20:43.971Z,27.58
2023-06-29T12:23:13.766Z,27.05
2023-06-29T12:25:49.251Z,27.09
2023-06-29T12:28:16.800Z,26.87
2023-06-29T12:30:45.179Z,27.04
2023-06-29T12:33:14.216Z,27.27
2023-06-29T12:35:43.618Z,26.63
2023-06-29T12:38:12.659Z,26.56
2023-06-29T12:40:40.265Z,26.63
2023-06-29T12:43:07.698Z,27.12
2023-06-29T12:45:35.737Z,27.02
2023-06-29T12:48:04.901Z,26.57
2023-06-29T12:50:32.535Z,26.92
2023-06-29T12:53:00.434Z,27.11
2023-06-29T12:55:27.863Z,26.92
2023-06-29T12:57:55.285Z,27.07
2023-06-29T13:00:23.136Z,27.29
2023-06-29T13:02:53.762Z,27.32
2023-06-29T13:05:21.491Z,27.35
2023-06-29T13:07:49.296Z,27.77
2023-06-29T13:10:16.783Z,27.49
2023-06-29T13:12:44.902Z,27.10
2023-06-29T13:15:12.656Z,27.53
2023-06-29T13:17:40.076Z,27.49
2023-06-29T13:20:07.858Z,27.65
2023-06-29T13:22:35.870Z,27.70
2023-06-29T13:25:03.596Z,27.78
2023-06-29T13:27:31.376Z,27.82
2023-06-29T13:29:59.046Z,27.94
2023-06-29T13:32:26.712Z,27.80
2023-06-29T13:34:54.540Z,27.39
2023-06-29T13:37:23.336Z,27.77
2023-06-29T13:39:50.918Z,28.19
2023-06-29T13:42:18.635Z,27.62
2023-06-29T13:44:47.209Z,27.83
2023-06-29T13:47:23.122Z,27.84
2023-06-29T13:49:51.912Z,27.75
2023-06-29T13:52:19.442Z,27.93
2023-06-29T13:54:46.970Z,27.86
2023-06-29T13:57:14.697Z,28.25
2023-06-29T13:59:42.167Z,27.81
2023-06-29T14:02:09.664Z,27.85
2023-06-29T14:04:37.484Z,27.96
2023-06-29T14:07:05.167Z,27.84
2023-06-29T14:09:34.006Z,28.36
2023-06-29T14:12:01.712Z,28.24
2023-06-29T14:14:29.121Z,28.31
2023-06-29T14:16:56.540Z,27.97
2023-06-29T14:19:24.277Z,28.18
2023-06-29T14:21:51.693Z,28.21
2023-06-29T14:24:19.107Z,27.89
2023-06-29T14:26:46.846Z,28.02
2023-06-29T14:29:14.198Z,28.22
2023-06-29T14:31:41.734Z,28.09
2023-06-29T14:34:09.632Z,28.49
2023-06-29T14:36:37.125Z,28.12
2023-06-29T14:39:04.567Z,27.82
2023-06-29T14:41:34.594Z,27.98
2023-06-29T14:44:05.017Z,27.87
2023-06-29T14:46:32.764Z,27.99
2023-06-29T14:49:00.539Z,27.61
2023-06-29T14:51:27.980Z,27.62
2023-06-29T14:53:55.656Z,27.93
2023-06-29T14:56:23.069Z,28.02
2023-06-29T14:58:50.575Z,28.24
2023-06-29T15:01:18.423Z,27.85
2023-06-29T15:03:46.949Z,27.60
2023-06-29T15:06:16.083Z,27.97
2023-06-29T15:08:43.841Z,27.71
2023-06-29T15:11:11.226Z,28.36
2023-06-29T15:13:38.668Z,27.63
2023-06-29T15:16:07.987Z,27.96
2023-06-29T15:18:43.317Z,27.92
2023-06-29T15:21:18.876Z,28.14
2023-06-29T15:23:46.272Z,28.14
2023-06-29T15:26:13.692Z,27.91
2023-06-29T15:28:41.404Z,27.61
2023-06-29T15:31:09.183Z,27.67
2023-06-29T15:33:36.637Z,27.88
2023-06-29T15:36:04.578Z,27.99
2023-06-29T15:38:32.408Z,27.56
2023-06-29T15:40:59.894Z,27.50
2023-06-29T15:43:27.692Z,27.83
2023-06-29T15:45:55.155Z,27.61
2023-06-29T15:48:22.670Z,27.93
2023-06-29T15:50:50.428Z,27.98
2023-06-29T15:53:17.888Z,27.80
2023-06-29T15:55:45.584Z,28.08
2023-06-29T15:58:13.423Z,27.55
2023-06-29T16:00:40.859Z,27.52
2023-06-29T16:03:09.311Z,27.52
2023-06-29T16:05:36.936Z,27.36
2023-06-29T16:08:04.644Z,27.65
2023-06-29T16:10:32.375Z,27.36
2023-06-29T16:12:59.859Z,27.08
2023-06-29T16:15:28.735Z,27.05
2023-06-29T16:17:58.260Z,26.97
2023-06-29T16:20:25.702Z,27.17
2023-06-29T16:22:53.166Z,26.89
2023-06-29T16:25:24.789Z,27.28
2023-06-29T16:27:52.462Z,27.43
2023-06-29T16:30:20.516Z,27.58
2023-06-29T16:32:48.418Z,27.51
2023-06-29T16:35:16.100Z,27.42
2023-06-29T16:37:46.336Z,27.35
2023-06-29T16:40:14.296Z,27.36
2023-06-29T16:42:41.751Z,27.22
2023-06-29T16:45:09.614Z,26.57
2023-06-29T16:47:38.692Z,26.68
2023-06-29T16:50:06.558Z,27.06
2023-06-29T16:52:34.016Z,27.16
2023-06-29T16:55:01.666Z,27.28
2023-06-29T16:57:29.253Z,27.30
2023-06-29T16:59:56.680Z,27.13
2023-06-29T17:02:24.608Z,27.26
2023-06-29T17:04:52.541Z,27.02
2023-06-29T17:07:22.016Z,27.14
2023-06-29T17:09:49.745Z,27.01
2023-06-29T17:12:17.186Z,27.03
2023-06-29T17:14:44.624Z,27.27
2023-06-29T17:17:12.381Z,27.08
2023-06-29T17:19:40.394Z,27.01
2023-06-29T17:22:11.360Z,27.03
2023-06-29T17:24:40.069Z,27.08
2023-06-29T17:27:08.742Z,27.01
2023-06-29T17:29:37.896Z,26.84
2023-06-29T17:32:06.256Z,26.67
2023-06-29T17:34:34.030Z,26.73
2023-06-29T17:37:03.210Z,26.65
2023-06-29T17:39:31.017Z,26.67
2023-06-29T17:41:59.800Z,26.64
2023-06-29T17:44:27.546Z,26.42
2023-06-29T17:46:56.230Z,26.43
2023-06-29T17:49:28.172Z,26.30
2023-06-29T17:51:56.801Z,26.17
2023-06-29T17:54:25.548Z,26.12
2023-06-29T17:56:53.802Z,26.06
2023-06-29T17:59:22.154Z,26.09
2023-06-29T18:01:51.054Z,26.04
2023-06-29T18:04:20.709Z,25.81
2023-06-29T18:06:48.889Z,25.82
2023-06-29T18:09:16.745Z,25.72
2023-06-29T18:11:44.648Z,25.66
2023-06-29T18:14:12.360Z,25.62
2023-06-29T18:16:40.857Z,25.45
2023-06-29T18:19:09.635Z,25.42
2023-06-29T18:21:37.284Z,25.38
2023-06-29T18:24:06.318Z,25.40
2023-06-29T18:26:35.992Z,25.34
2023-06-29T18:29:04.388Z,25.27
2023-06-29T18:31:32.558Z,25.31
2023-06-29T18:34:02.049Z,25.01
2023-06-29T18:36:30.558Z,24.95
2023-06-29T18:38:59.857Z,24.93
2023-06-29T18:41:35.409Z,24.86
2023-06-29T18:44:04.581Z,24.88
2023-06-29T18:47:09.681Z,24.68
2023-06-29T18:49:50.773Z,24.72
2023-06-29T18:52:21.514Z,24.72
2023-06-29T18:54:51.739Z,24.59
2023-06-29T18:57:19.271Z,24.44
2023-06-29T18:59:48.642Z,24.35
2023-06-29T19:02:16.318Z,24.36
2023-06-29T19:04:43.831Z,24.14
2023-06-29T19:07:12.588Z,24.16
2023-06-29T19:09:40.301Z,24.06
2023-06-29T19:12:08.189Z,24.02
2023-06-29T19:14:36.430Z,23.74
2023-06-29T19:17:05.196Z,23.89
2023-06-29T19:19:34.281Z,23.88
2023-06-29T19:22:03.741Z,23.72
2023-06-29T19:24:31.140Z,23.71
2023-06-29T19:26:58.937Z,23.69
2023-06-29T19:29:26.899Z,23.54
2023-06-29T19:31:56.008Z,23.53
2023-06-29T19:34:23.502Z,23.36
2023-06-29T19:36:52.321Z,23.31
2023-06-29T19:39:20.361Z,23.33
2023-06-29T19:41:47.988Z,23.20
2023-06-29T19:44:16.109Z,23.10
2023-06-29T19:46:43.970Z,23.18
2023-06-29T19:49:11.829Z,23.23
2023-06-29T19:51:40.354Z,23.00
2023-06-29T19:54:08.592Z,23.30
2023-06-29T19:56:37.491Z,23.15
2023-06-29T19:59:05.541Z,23.09
2023-06-29T20:01:34.094Z,23.06
2023-06-29T20:04:03.642Z,23.20
2023-06-29T20:06:31.736Z,23.15
2023-06-29T20:09:01.581Z,23.12
2023-06-29T20:11:30.796Z,23.35
2023-06-29T20:13:59.008Z,23.23
2023-06-29T20:16:26.807Z,23.25
2023-06-29T20:18:55.099Z,23.20
2023-06-29T20:21:23.122Z,22.97
2023-06-29T20:23:52.153Z,22.91
2023-06-29T20:26:20.572Z,22.91
2023-06-29T20:28:49.038Z,22.74
2023-06-29T20:31:17.334Z,22.65
2023-06-29T20:33:46.075Z,22.72
2023-06-29T20:36:14.642Z,22.72
2023-06-29T20:38:43.293Z,22.62
2023-06-29T20:41:12.955Z,22.53
2023-06-29T20:43:47.427Z,22.55
2023-06-29T20:46:19.484Z,22.48
2023-06-29T20:48:47.573Z,22.49
2023-06-29T20:51:18.215Z,22.36
2023-06-29T20:53:46.434Z,22.31
2023-06-29T20:56:14.568Z,22.31
2023-06-29T20:58:43.115Z,22.49
2023-06-29T21:01:10.858Z,22.45
2023-06-29T21:03:39.637Z,22.53
2023-06-29T21:06:07.421Z,22.37
2023-06-29T21:08:35.363Z,22.26
2023-06-29T21:11:03.342Z,22.18
2023-06-29T21:13:31.251Z,22.05
2023-06-29T21:15:58.940Z,22.00
2023-06-29T21:18:26.609Z,22.15
2023-06-29T21:20:54.530Z,22.09
2023-06-29T21:23:22.327Z,22.20
2023-06-29T21:25:50.113Z,22.14
2023-06-29T21:28:18.197Z,22.02
2023-06-29T21:30:46.310Z,22.04
2023-06-29T21:33:14.003Z,21.85
2023-06-29T21:35:44.382Z,21.80
2023-06-29T21:38:12.282Z,21.76
2023-06-29T21:40:40.126Z,21.75
2023-06-29T21:43:07.883Z,21.66
2023-06-29T21:45:35.301Z,21.66
2023-06-29T21:48:02.812Z,21.53
2023-06-29T21:50:30.546Z,21.40
2023-06-29T21:52:58.046Z,21.38
2023-06-29T21:55:26.787Z,21.28
2023-06-29T21:57:57.526Z,21.23
2023-06-29T22:00:25.210Z,21.29
2023-06-29T22:05:43.572Z,21.26
2023-06-29T22:08:32.603Z,21.23
2023-06-29T22:11:21.132Z,21.27
2023-06-29T22:13:49.396Z,21.13
2023-06-29T22:16:21.627Z,21.18
2023-06-29T22:18:52.120Z,21.14
2023-06-29T22:21:22.096Z,21.20
2023-06-29T22:23:51.027Z,21.20
2023-06-29T22:26:19.691Z,21.20
2023-06-29T22:28:47.532Z,21.12
2023-06-29T22:31:18.751Z,21.05
2023-06-29T22:33:47.365Z,21.00
2023-06-29T22:36:19.184Z,20.94
2023-06-29T22:38:46.984Z,20.95
2023-06-29T22:41:14.988Z,20.93
2023-06-29T22:50:02.307Z,21.08
2023-06-29T22:52:30.017Z,20.92
2023-06-29T22:54:57.433Z,20.92
2023-06-29T22:57:26.177Z,20.85
2023-06-29T22:59:56.531Z,20.73
2023-06-29T23:02:24.157Z,20.59
2023-06-29T23:04:53.611Z,20.67
2023-06-29T23:07:23.366Z,20.56
2023-06-29T23:09:50.892Z,20.58
2023-06-29T23:12:22.436Z,20.56
2023-06-29T23:14:52.586Z,20.47
2023-06-29T23:17:26.230Z,20.40
2023-06-29T23:19:54.071Z,20.41
2023-06-29T23:22:22.846Z,20.38
2023-06-29T23:24:53.929Z,20.45
2023-06-29T23:27:21.955Z,20.37
2023-06-29T23:29:54.006Z,20.36
2023-06-29T23:32:22.595Z,20.30
2023-06-29T23:34:50.130Z,20.24
2023-06-29T23:37:17.543Z,20.30
2023-06-29T23:39:45.245Z,20.24
2023-06-29T23:42:12.662Z,20.23
2023-06-29T23:44:41.938Z,20.13
2023-06-29T23:47:11.071Z,20.16
2023-06-29T23:49:38.613Z,20.21
2023-06-29T23:52:10.861Z,20.30
2023-06-29T23:54:38.934Z,20.27
2023-06-29T23:57:07.120Z,20.25
2023-06-29T23:59:34.551Z,20.21
